sensor_id;sensor_type;location;lat;lon;timestamp;temperature;humidity
22426;DHT22;11380;50.822;15.790;2023-06-22T00:01:59;20.20;1.00
22426;DHT22;11380;50.822;15.790;2023-06-22T00:07:07;20.30;1.00
22426;DHT22;11380;50.822;15.790;2023-06-22T00:12:14;20.20;1.00
22426;DHT22;11380;50.822;15.790;2023-06-22T00:17:21;19.70;26.70
22426;DHT22;11380;50.822;15.790;2023-06-22T00:22:28;20.00;1.00
22426;DHT22;11380;50.822;15.790;2023-06-22T00:27:35;20.00;1.00
22426;DHT22;11380;50.822;15.790;2023-06-22T00:32:43;20.20;1.00
22426;DHT22;11380;50.822;15.790;2023-06-22T00:37:50;20.30;1.00
22426;DHT22;11380;50.822;15.790;2023-06-22T00:43:00;20.40;1.00
22426;DHT22;11380;50.822;15.790;2023-06-22T00:48:07;20.40;1.00
22426;DHT22;11380;50.822;15.790;2023-06-22T00:53:15;20.30;1.00
22426;DHT22;11380;50.822;15.790;2023-06-22T00:58:23;20.60;1.00
22426;DHT22;11380;50.822;15.790;2023-06-22T01:03:29;20.40;1.00
22426;DHT22;11380;50.822;15.790;2023-06-22T01:14:18;20.30;1.00
22426;DHT22;11380;50.822;15.790;2023-06-22T01:19:39;20.40;1.00
22426;DHT22;11380;50.822;15.790;2023-06-22T01:30:18;20.00;1.00
22426;DHT22;11380;50.822;15.790;2023-06-22T01:35:26;19.80;1.00
22426;DHT22;11380;50.822;15.790;2023-06-22T01:40:33;19.80;1.00
22426;DHT22;11380;50.822;15.790;2023-06-22T01:45:40;19.70;1.00
22426;DHT22;11380;50.822;15.790;2023-06-22T01:50:48;19.60;1.00
22426;DHT22;11380;50.822;15.790;2023-06-22T01:55:56;19.60;1.00
22426;DHT22;11380;50.822;15.790;2023-06-22T02:01:11;19.50;1.00
22426;DHT22;11380;50.822;15.790;2023-06-22T02:06:21;19.60;1.00
22426;DHT22;11380;50.822;15.790;2023-06-22T02:11:34;19.50;1.00
22426;DHT22;11380;50.822;15.790;2023-06-22T02:16:45;19.10;1.00
22426;DHT22;11380;50.822;15.790;2023-06-22T02:21:52;19.20;1.00
22426;DHT22;11380;50.822;15.790;2023-06-22T02:27:01;18.90;75.30
22426;DHT22;11380;50.822;15.790;2023-06-22T02:32:09;18.90;29.00
22426;DHT22;11380;50.822;15.790;2023-06-22T02:37:16;18.90;29.30
22426;DHT22;11380;50.822;15.790;2023-06-22T02:42:22;18.80;1.00
22426;DHT22;11380;50.822;15.790;2023-06-22T02:47:29;18.70;1.00
22426;DHT22;11380;50.822;15.790;2023-06-22T02:52:36;18.80;1.00
22426;DHT22;11380;50.822;15.790;2023-06-22T02:57:44;18.90;1.00
22426;DHT22;11380;50.822;15.790;2023-06-22T03:02:53;19.10;1.00
22426;DHT22;11380;50.822;15.790;2023-06-22T03:08:00;18.90;1.00
22426;DHT22;11380;50.822;15.790;2023-06-22T03:13:07;18.70;10.70
22426;DHT22;11380;50.822;15.790;2023-06-22T03:18:14;18.80;7.80
22426;DHT22;11380;50.822;15.790;2023-06-22T03:23:20;18.80;9.30
22426;DHT22;11380;50.822;15.790;2023-06-22T03:28:27;18.90;5.60
22426;DHT22;11380;50.822;15.790;2023-06-22T03:33:34;18.60;1.00
22426;DHT22;11380;50.822;15.790;2023-06-22T03:38:42;18.70;62.00
22426;DHT22;11380;50.822;15.790;2023-06-22T03:43:49;18.80;19.30
22426;DHT22;11380;50.822;15.790;2023-06-22T03:48:57;19.20;11.70
22426;DHT22;11380;50.822;15.790;2023-06-22T03:54:05;19.00;1.00
22426;DHT22;11380;50.822;15.790;2023-06-22T03:59:12;19.20;1.00
22426;DHT22;11380;50.822;15.790;2023-06-22T04:04:19;19.50;1.00
22426;DHT22;11380;50.822;15.790;2023-06-22T04:09:26;19.30;35.30
22426;DHT22;11380;50.822;15.790;2023-06-22T04:14:33;19.40;35.00
22426;DHT22;11380;50.822;15.790;2023-06-22T04:19:41;19.70;21.10
22426;DHT22;11380;50.822;15.790;2023-06-22T04:24:47;19.70;30.50
22426;DHT22;11380;50.822;15.790;2023-06-22T04:29:56;19.80;33.10
22426;DHT22;11380;50.822;15.790;2023-06-22T04:35:05;20.20;1.00
22426;DHT22;11380;50.822;15.790;2023-06-22T04:40:13;20.50;1.00
22426;DHT22;11380;50.822;15.790;2023-06-22T04:45:21;20.60;1.00
22426;DHT22;11380;50.822;15.790;2023-06-22T04:50:27;20.90;1.00
22426;DHT22;11380;50.822;15.790;2023-06-22T04:55:35;20.90;1.00
22426;DHT22;11380;50.822;15.790;2023-06-22T05:00:43;21.20;1.00
22426;DHT22;11380;50.822;15.790;2023-06-22T05:05:50;21.70;1.00
22426;DHT22;11380;50.822;15.790;2023-06-22T05:10:58;21.40;1.00
22426;DHT22;11380;50.822;15.790;2023-06-22T05:16:07;21.80;1.00
22426;DHT22;11380;50.822;15.790;2023-06-22T05:21:15;22.10;1.00
22426;DHT22;11380;50.822;15.790;2023-06-22T05:26:22;22.50;1.00
22426;DHT22;11380;50.822;15.790;2023-06-22T05:31:30;22.60;1.00
22426;DHT22;11380;50.822;15.790;2023-06-22T05:36:36;22.80;1.00
22426;DHT22;11380;50.822;15.790;2023-06-22T05:41:44;23.00;1.00
22426;DHT22;11380;50.822;15.790;2023-06-22T05:46:51;23.20;1.00
22426;DHT22;11380;50.822;15.790;2023-06-22T05:51:58;23.50;1.00
22426;DHT22;11380;50.822;15.790;2023-06-22T05:57:05;23.60;1.00
22426;DHT22;11380;50.822;15.790;2023-06-22T06:02:12;23.90;1.00
22426;DHT22;11380;50.822;15.790;2023-06-22T06:07:19;24.20;1.00
22426;DHT22;11380;50.822;15.790;2023-06-22T06:12:26;24.40;1.00
22426;DHT22;11380;50.822;15.790;2023-06-22T06:17:33;24.50;1.00
22426;DHT22;11380;50.822;15.790;2023-06-22T06:22:40;24.50;1.00
22426;DHT22;11380;50.822;15.790;2023-06-22T06:27:49;24.80;1.00
22426;DHT22;11380;50.822;15.790;2023-06-22T06:32:56;24.90;1.00
22426;DHT22;11380;50.822;15.790;2023-06-22T06:38:02;24.80;1.00
22426;DHT22;11380;50.822;15.790;2023-06-22T06:43:09;24.80;1.00
22426;DHT22;11380;50.822;15.790;2023-06-22T06:48:16;25.20;1.00
22426;DHT22;11380;50.822;15.790;2023-06-22T06:53:23;25.00;1.00
22426;DHT22;11380;50.822;15.790;2023-06-22T06:58:29;25.20;1.00
22426;DHT22;11380;50.822;15.790;2023-06-22T07:03:36;25.50;1.00
22426;DHT22;11380;50.822;15.790;2023-06-22T07:08:43;25.70;1.00
22426;DHT22;11380;50.822;15.790;2023-06-22T07:13:50;25.80;1.00
22426;DHT22;11380;50.822;15.790;2023-06-22T07:18:57;26.10;1.00
22426;DHT22;11380;50.822;15.790;2023-06-22T07:24:05;25.70;1.00
22426;DHT22;11380;50.822;15.790;2023-06-22T07:29:12;25.80;1.00
22426;DHT22;11380;50.822;15.790;2023-06-22T07:34:20;25.80;1.00
22426;DHT22;11380;50.822;15.790;2023-06-22T07:39:26;25.60;1.00
22426;DHT22;11380;50.822;15.790;2023-06-22T07:44:33;26.10;1.00
22426;DHT22;11380;50.822;15.790;2023-06-22T07:49:40;26.00;1.00
22426;DHT22;11380;50.822;15.790;2023-06-22T07:54:48;25.80;1.00
22426;DHT22;11380;50.822;15.790;2023-06-22T07:59:54;26.50;1.00
22426;DHT22;11380;50.822;15.790;2023-06-22T08:05:01;26.70;1.00
22426;DHT22;11380;50.822;15.790;2023-06-22T08:10:12;26.80;1.00
22426;DHT22;11380;50.822;15.790;2023-06-22T08:15:20;27.30;1.00
22426;DHT22;11380;50.822;15.790;2023-06-22T08:20:27;26.80;1.00
22426;DHT22;11380;50.822;15.790;2023-06-22T08:25:34;27.00;1.00
22426;DHT22;11380;50.822;15.790;2023-06-22T08:30:41;26.80;1.00
22426;DHT22;11380;50.822;15.790;2023-06-22T08:35:48;26.10;1.00
22426;DHT22;11380;50.822;15.790;2023-06-22T08:40:55;27.10;1.00
22426;DHT22;11380;50.822;15.790;2023-06-22T08:46:01;27.20;1.00
22426;DHT22;11380;50.822;15.790;2023-06-22T08:51:08;27.30;1.00
22426;DHT22;11380;50.822;15.790;2023-06-22T08:56:15;27.90;1.00
22426;DHT22;11380;50.822;15.790;2023-06-22T09:01:23;27.50;1.00
22426;DHT22;11380;50.822;15.790;2023-06-22T09:06:29;26.40;1.00
22426;DHT22;11380;50.822;15.790;2023-06-22T09:11:36;27.00;1.00
22426;DHT22;11380;50.822;15.790;2023-06-22T09:16:43;26.20;1.00
22426;DHT22;11380;50.822;15.790;2023-06-22T09:21:50;26.90;1.00
22426;DHT22;11380;50.822;15.790;2023-06-22T09:26:57;26.40;1.00
22426;DHT22;11380;50.822;15.790;2023-06-22T09:32:05;26.70;1.00
22426;DHT22;11380;50.822;15.790;2023-06-22T09:37:13;27.00;1.00
22426;DHT22;11380;50.822;15.790;2023-06-22T09:42:20;27.00;1.00
22426;DHT22;11380;50.822;15.790;2023-06-22T09:47:28;26.60;1.00
22426;DHT22;11380;50.822;15.790;2023-06-22T09:52:35;26.40;1.00
22426;DHT22;11380;50.822;15.790;2023-06-22T09:57:44;26.30;1.00
22426;DHT22;11380;50.822;15.790;2023-06-22T10:02:50;26.30;1.00
22426;DHT22;11380;50.822;15.790;2023-06-22T10:07:57;26.60;1.00
22426;DHT22;11380;50.822;15.790;2023-06-22T10:13:09;26.80;1.00
22426;DHT22;11380;50.822;15.790;2023-06-22T10:18:16;27.40;1.00
22426;DHT22;11380;50.822;15.790;2023-06-22T10:23:23;28.30;1.00
22426;DHT22;11380;50.822;15.790;2023-06-22T10:28:30;28.40;1.00
22426;DHT22;11380;50.822;15.790;2023-06-22T10:33:36;27.80;1.00
22426;DHT22;11380;50.822;15.790;2023-06-22T10:38:45;28.20;1.00
22426;DHT22;11380;50.822;15.790;2023-06-22T10:43:52;28.80;1.00
22426;DHT22;11380;50.822;15.790;2023-06-22T10:49:01;27.70;1.00
22426;DHT22;11380;50.822;15.790;2023-06-22T10:54:07;27.90;1.00
22426;DHT22;11380;50.822;15.790;2023-06-22T10:59:14;28.20;1.00
22426;DHT22;11380;50.822;15.790;2023-06-22T11:04:21;27.10;1.00
22426;DHT22;11380;50.822;15.790;2023-06-22T11:09:28;27.10;1.00
22426;DHT22;11380;50.822;15.790;2023-06-22T11:14:34;27.50;1.00
22426;DHT22;11380;50.822;15.790;2023-06-22T11:19:41;27.30;1.00
22426;DHT22;11380;50.822;15.790;2023-06-22T11:24:49;27.10;1.00
22426;DHT22;11380;50.822;15.790;2023-06-22T11:29:56;27.40;1.00
22426;DHT22;11380;50.822;15.790;2023-06-22T11:35:03;27.10;1.00
22426;DHT22;11380;50.822;15.790;2023-06-22T11:40:11;26.70;1.00
22426;DHT22;11380;50.822;15.790;2023-06-22T11:45:19;27.00;1.00
22426;DHT22;11380;50.822;15.790;2023-06-22T11:50:25;27.70;1.00
22426;DHT22;11380;50.822;15.790;2023-06-22T11:55:35;28.20;1.00
22426;DHT22;11380;50.822;15.790;2023-06-22T12:00:42;27.80;1.00
22426;DHT22;11380;50.822;15.790;2023-06-22T12:05:52;28.10;1.00
22426;DHT22;11380;50.822;15.790;2023-06-22T12:10:58;28.00;1.00
22426;DHT22;11380;50.822;15.790;2023-06-22T12:16:05;28.50;1.00
22426;DHT22;11380;50.822;15.790;2023-06-22T12:21:12;28.30;1.00
22426;DHT22;11380;50.822;15.790;2023-06-22T12:26:20;27.80;1.00
22426;DHT22;11380;50.822;15.790;2023-06-22T12:31:27;28.00;1.00
22426;DHT22;11380;50.822;15.790;2023-06-22T12:36:35;28.80;1.00
22426;DHT22;11380;50.822;15.790;2023-06-22T12:41:41;29.20;1.00
22426;DHT22;11380;50.822;15.790;2023-06-22T12:46:49;29.20;1.00
22426;DHT22;11380;50.822;15.790;2023-06-22T12:51:56;28.30;1.00
22426;DHT22;11380;50.822;15.790;2023-06-22T12:57:03;28.30;1.00
22426;DHT22;11380;50.822;15.790;2023-06-22T13:02:10;28.80;1.00
22426;DHT22;11380;50.822;15.790;2023-06-22T13:07:19;29.00;1.00
22426;DHT22;11380;50.822;15.790;2023-06-22T13:12:27;29.10;1.00
22426;DHT22;11380;50.822;15.790;2023-06-22T13:17:34;28.70;1.00
22426;DHT22;11380;50.822;15.790;2023-06-22T13:22:40;28.90;1.00
22426;DHT22;11380;50.822;15.790;2023-06-22T13:27:48;29.30;1.00
22426;DHT22;11380;50.822;15.790;2023-06-22T13:32:55;29.10;1.00
22426;DHT22;11380;50.822;15.790;2023-06-22T13:38:01;29.20;1.00
22426;DHT22;11380;50.822;15.790;2023-06-22T13:43:09;29.90;1.00
22426;DHT22;11380;50.822;15.790;2023-06-22T13:48:16;29.40;1.00
22426;DHT22;11380;50.822;15.790;2023-06-22T13:53:24;28.50;1.00
22426;DHT22;11380;50.822;15.790;2023-06-22T13:58:31;28.40;1.00
22426;DHT22;11380;50.822;15.790;2023-06-22T14:03:37;28.30;1.00
22426;DHT22;11380;50.822;15.790;2023-06-22T14:08:45;27.90;1.00
22426;DHT22;11380;50.822;15.790;2023-06-22T14:13:52;28.50;1.00
22426;DHT22;11380;50.822;15.790;2023-06-22T14:18:59;29.10;1.00
22426;DHT22;11380;50.822;15.790;2023-06-22T14:24:06;28.60;1.00
22426;DHT22;11380;50.822;15.790;2023-06-22T14:29:14;28.10;1.00
22426;DHT22;11380;50.822;15.790;2023-06-22T14:34:21;27.50;1.00
22426;DHT22;11380;50.822;15.790;2023-06-22T14:39:28;27.40;1.00
22426;DHT22;11380;50.822;15.790;2023-06-22T14:44:35;27.20;99.90
22426;DHT22;11380;50.822;15.790;2023-06-22T14:49:42;26.80;99.90
22426;DHT22;11380;50.822;15.790;2023-06-22T14:54:48;27.00;1.00
22426;DHT22;11380;50.822;15.790;2023-06-22T14:59:57;26.90;1.00
22426;DHT22;11380;50.822;15.790;2023-06-22T15:05:05;26.80;1.00
22426;DHT22;11380;50.822;15.790;2023-06-22T15:10:12;26.80;1.00
22426;DHT22;11380;50.822;15.790;2023-06-22T15:15:20;27.30;99.90
22426;DHT22;11380;50.822;15.790;2023-06-22T15:20:27;27.10;99.90
22426;DHT22;11380;50.822;15.790;2023-06-22T15:25:34;26.90;1.00
22426;DHT22;11380;50.822;15.790;2023-06-22T15:30:43;26.70;1.00
22426;DHT22;11380;50.822;15.790;2023-06-22T15:35:52;26.70;1.00
22426;DHT22;11380;50.822;15.790;2023-06-22T15:41:01;26.70;99.90
22426;DHT22;11380;50.822;15.790;2023-06-22T15:46:08;26.90;99.90
22426;DHT22;11380;50.822;15.790;2023-06-22T15:51:14;27.10;99.90
22426;DHT22;11380;50.822;15.790;2023-06-22T15:56:21;27.30;99.90
22426;DHT22;11380;50.822;15.790;2023-06-22T16:01:30;27.30;99.90
22426;DHT22;11380;50.822;15.790;2023-06-22T16:06:37;26.90;99.90
22426;DHT22;11380;50.822;15.790;2023-06-22T16:11:44;26.70;99.90
22426;DHT22;11380;50.822;15.790;2023-06-22T16:16:51;26.40;99.90
22426;DHT22;11380;50.822;15.790;2023-06-22T16:21:58;26.10;1.00
22426;DHT22;11380;50.822;15.790;2023-06-22T16:27:06;26.30;1.00
22426;DHT22;11380;50.822;15.790;2023-06-22T16:32:13;26.40;1.00
22426;DHT22;11380;50.822;15.790;2023-06-22T16:37:20;26.50;1.00
22426;DHT22;11380;50.822;15.790;2023-06-22T16:42:27;26.60;1.00
22426;DHT22;11380;50.822;15.790;2023-06-22T16:47:33;26.50;1.00
22426;DHT22;11380;50.822;15.790;2023-06-22T16:52:42;26.40;99.90
22426;DHT22;11380;50.822;15.790;2023-06-22T16:57:52;26.50;1.00
22426;DHT22;11380;50.822;15.790;2023-06-22T17:03:03;26.40;99.90
22426;DHT22;11380;50.822;15.790;2023-06-22T17:08:15;26.30;1.00
22426;DHT22;11380;50.822;15.790;2023-06-22T17:13:24;26.10;1.00
22426;DHT22;11380;50.822;15.790;2023-06-22T17:18:33;26.00;1.00
22426;DHT22;11380;50.822;15.790;2023-06-22T17:23:39;26.10;99.90
22426;DHT22;11380;50.822;15.790;2023-06-22T17:28:49;26.00;99.90
22426;DHT22;11380;50.822;15.790;2023-06-22T17:33:57;25.90;1.00
22426;DHT22;11380;50.822;15.790;2023-06-22T17:39:05;25.90;1.00
22426;DHT22;11380;50.822;15.790;2023-06-22T17:44:17;25.60;1.00
22426;DHT22;11380;50.822;15.790;2023-06-22T17:49:30;25.60;1.00
22426;DHT22;11380;50.822;15.790;2023-06-22T17:54:38;25.60;1.00
22426;DHT22;11380;50.822;15.790;2023-06-22T17:59:48;25.40;1.00
22426;DHT22;11380;50.822;15.790;2023-06-22T18:05:01;25.40;1.00
22426;DHT22;11380;50.822;15.790;2023-06-22T18:10:10;25.10;1.00
22426;DHT22;11380;50.822;15.790;2023-06-22T18:15:17;25.00;1.00
22426;DHT22;11380;50.822;15.790;2023-06-22T18:20:25;25.00;99.90
22426;DHT22;11380;50.822;15.790;2023-06-22T18:25:34;24.70;1.00
22426;DHT22;11380;50.822;15.790;2023-06-22T18:30:42;24.70;1.00
22426;DHT22;11380;50.822;15.790;2023-06-22T18:35:50;24.70;99.90
22426;DHT22;11380;50.822;15.790;2023-06-22T18:40:58;24.50;1.00
22426;DHT22;11380;50.822;15.790;2023-06-22T18:51:50;24.30;1.00
22426;DHT22;11380;50.822;15.790;2023-06-22T18:57:00;24.30;1.00
22426;DHT22;11380;50.822;15.790;2023-06-22T19:02:09;24.10;1.00
22426;DHT22;11380;50.822;15.790;2023-06-22T19:07:17;23.90;1.00
22426;DHT22;11380;50.822;15.790;2023-06-22T19:12:27;23.80;1.00
22426;DHT22;11380;50.822;15.790;2023-06-22T19:17:34;23.90;1.00
22426;DHT22;11380;50.822;15.790;2023-06-22T19:22:54;23.70;1.00
22426;DHT22;11380;50.822;15.790;2023-06-22T19:28:05;23.60;1.00
22426;DHT22;11380;50.822;15.790;2023-06-22T19:33:14;23.60;1.00
22426;DHT22;11380;50.822;15.790;2023-06-22T19:38:23;23.60;1.00
22426;DHT22;11380;50.822;15.790;2023-06-22T19:43:31;23.40;1.00
22426;DHT22;11380;50.822;15.790;2023-06-22T19:48:40;23.40;1.00
22426;DHT22;11380;50.822;15.790;2023-06-22T19:53:49;23.30;1.00
22426;DHT22;11380;50.822;15.790;2023-06-22T19:58:57;23.20;1.00
22426;DHT22;11380;50.822;15.790;2023-06-22T20:04:05;23.30;1.00
22426;DHT22;11380;50.822;15.790;2023-06-22T20:09:14;23.40;1.00
22426;DHT22;11380;50.822;15.790;2023-06-22T20:14:21;23.40;1.00
22426;DHT22;11380;50.822;15.790;2023-06-22T20:19:38;23.40;1.00
22426;DHT22;11380;50.822;15.790;2023-06-22T20:24:46;23.60;1.00
22426;DHT22;11380;50.822;15.790;2023-06-22T20:29:55;23.60;1.00
22426;DHT22;11380;50.822;15.790;2023-06-22T20:35:02;23.70;1.00
22426;DHT22;11380;50.822;15.790;2023-06-22T20:40:11;23.70;1.00
22426;DHT22;11380;50.822;15.790;2023-06-22T20:45:19;23.80;1.00
22426;DHT22;11380;50.822;15.790;2023-06-22T20:50:27;23.70;1.00
22426;DHT22;11380;50.822;15.790;2023-06-22T20:55:38;23.80;1.00
22426;DHT22;11380;50.822;15.790;2023-06-22T21:00:46;23.70;1.00
22426;DHT22;11380;50.822;15.790;2023-06-22T21:05:57;23.70;1.00
22426;DHT22;11380;50.822;15.790;2023-06-22T21:11:04;23.70;1.00
22426;DHT22;11380;50.822;15.790;2023-06-22T21:16:12;23.80;1.00
22426;DHT22;11380;50.822;15.790;2023-06-22T21:21:20;23.80;1.00
22426;DHT22;11380;50.822;15.790;2023-06-22T21:26:27;23.80;1.00
22426;DHT22;11380;50.822;15.790;2023-06-22T21:31:33;23.70;99.90
22426;DHT22;11380;50.822;15.790;2023-06-22T21:36:41;23.60;99.90
22426;DHT22;11380;50.822;15.790;2023-06-22T21:41:48;23.60;99.90
22426;DHT22;11380;50.822;15.790;2023-06-22T21:46:55;23.50;99.90
22426;DHT22;11380;50.822;15.790;2023-06-22T21:52:04;23.40;99.90
22426;DHT22;11380;50.822;15.790;2023-06-22T21:57:14;23.40;99.90
22426;DHT22;11380;50.822;15.790;2023-06-22T22:02:21;23.40;99.90
22426;DHT22;11380;50.822;15.790;2023-06-22T22:07:29;23.60;99.90
22426;DHT22;11380;50.822;15.790;2023-06-22T22:12:36;23.60;99.90
22426;DHT22;11380;50.822;15.790;2023-06-22T22:17:43;23.70;99.90
22426;DHT22;11380;50.822;15.790;2023-06-22T22:22:51;23.80;99.90
22426;DHT22;11380;50.822;15.790;2023-06-22T22:27:57;23.80;99.90
22426;DHT22;11380;50.822;15.790;2023-06-22T22:33:05;23.90;99.90
22426;DHT22;11380;50.822;15.790;2023-06-22T22:38:15;24.00;99.90
22426;DHT22;11380;50.822;15.790;2023-06-22T22:43:22;24.20;99.90
22426;DHT22;11380;50.822;15.790;2023-06-22T22:48:29;24.10;99.90
22426;DHT22;11380;50.822;15.790;2023-06-22T22:53:35;24.20;99.90
22426;DHT22;11380;50.822;15.790;2023-06-22T22:58:42;24.30;99.90
22426;DHT22;11380;50.822;15.790;2023-06-22T23:03:49;24.40;99.90
22426;DHT22;11380;50.822;15.790;2023-06-22T23:08:57;24.40;99.90
22426;DHT22;11380;50.822;15.790;2023-06-22T23:14:04;24.40;99.90
22426;DHT22;11380;50.822;15.790;2023-06-22T23:19:12;24.30;99.90
22426;DHT22;11380;50.822;15.790;2023-06-22T23:24:21;24.10;99.90
22426;DHT22;11380;50.822;15.790;2023-06-22T23:29:27;24.20;1.00
22426;DHT22;11380;50.822;15.790;2023-06-22T23:34:36;24.20;99.90
22426;DHT22;11380;50.822;15.790;2023-06-22T23:39:43;24.20;1.00
22426;DHT22;11380;50.822;15.790;2023-06-22T23:44:50;24.10;1.00
22426;DHT22;11380;50.822;15.790;2023-06-22T23:49:58;23.80;1.00
22426;DHT22;11380;50.822;15.790;2023-06-22T23:55:06;23.70;1.00
